createdAt,value
2022-12-18T00:09:25.243Z,23.63
2022-12-18T00:29:30.646Z,21.29
2022-12-18T00:49:36.440Z,20.61
2022-12-18T01:09:42.226Z,20.66
2022-12-18T01:29:48.083Z,21.30
2022-12-18T01:49:53.973Z,20.23
2022-12-18T02:09:59.737Z,21.56
2022-12-18T02:30:05.546Z,16.06
2022-12-18T02:50:11.369Z,17.22
2022-12-18T03:10:17.161Z,16.29
2022-12-18T03:30:22.996Z,15.11
2022-12-18T03:50:28.798Z,16.22
2022-12-18T04:10:34.614Z,16.82
2022-12-18T04:30:40.486Z,19.07
2022-12-18T04:50:46.365Z,12.99
2022-12-18T05:10:52.124Z,13.89
2022-12-18T05:30:58.068Z,15.33
2022-12-18T05:51:03.806Z,16.25
2022-12-18T06:11:09.602Z,15.05
2022-12-18T06:31:15.514Z,16.09
2022-12-18T06:51:21.170Z,16.90
2022-12-18T07:11:27.014Z,16.98
2022-12-18T07:31:32.913Z,15.32
2022-12-18T07:51:38.775Z,17.33
2022-12-18T08:11:44.658Z,16.83
2022-12-18T08:31:50.514Z,13.57
2022-12-18T08:51:56.258Z,11.64
2022-12-18T09:12:02.145Z,15.94
2022-12-18T09:32:07.896Z,14.24
2022-12-18T09:52:13.722Z,14.94
2022-12-18T10:12:19.485Z,13.31
2022-12-18T10:32:25.254Z,12.38
2022-12-18T10:52:31.039Z,13.19
2022-12-18T11:12:36.871Z,11.92
2022-12-18T11:32:42.659Z,15.08
2022-12-18T11:52:52.784Z,14.21
2022-12-18T12:12:53.853Z,14.53
2022-12-18T12:32:59.652Z,13.49
2022-12-18T12:53:05.453Z,13.23
2022-12-18T13:13:11.286Z,13.71
2022-12-18T13:33:17.192Z,15.92
2022-12-18T13:53:22.988Z,14.55
2022-12-18T14:13:28.793Z,15.90
2022-12-18T14:33:34.605Z,15.67
2022-12-18T14:53:40.858Z,16.45
2022-12-18T15:13:45.813Z,21.05
2022-12-18T15:33:51.593Z,17.75
2022-12-18T15:53:57.808Z,16.21
2022-12-18T16:14:03.676Z,14.63
2022-12-18T16:34:09.525Z,15.02
2022-12-18T16:54:19.177Z,16.73
2022-12-18T17:14:20.705Z,16.42
2022-12-18T17:34:26.546Z,14.83
2022-12-18T17:54:32.380Z,14.19
2022-12-18T18:14:38.181Z,14.27
2022-12-18T18:34:43.543Z,14.37
2022-12-18T18:55:11.498Z,17.07
2022-12-18T19:14:55.885Z,17.59
2022-12-18T19:35:01.637Z,19.66
2022-12-18T19:55:07.464Z,20.30
2022-12-18T20:15:13.300Z,20.61
2022-12-18T20:35:20.033Z,21.37
2022-12-18T20:55:25.765Z,22.45
2022-12-18T21:15:31.546Z,22.62
2022-12-18T21:35:37.356Z,24.07
2022-12-18T21:55:43.141Z,20.67
2022-12-18T22:15:49.073Z,21.04
2022-12-18T22:35:54.828Z,19.00
2022-12-18T22:56:00.805Z,19.44
2022-12-18T23:16:06.687Z,16.79
2022-12-18T23:36:12.390Z,17.97
2022-12-18T23:56:18.192Z,17.58
